Time;durP1;ratioP1;P1;durP2;ratioP2;P2;SDS_P1;SDS_P2;PMS_P1;PMS_P2;Temp;Humidity;BMP_temperature;BMP_pressure;BME280_temperature;BME280_humidity;BME280_pressure;Samples;Min_cycle;Max_cycle;Signal;HPM_P1;HPM_P2
2021/07/20 00:00:24;;;;;;;18.85;11.38;;;13.10;99.90;;;14.43;100.00;100979.84;6283933;22;20037;-88
2021/07/20 00:02:56;;;;;;;16.88;10.93;;;13.10;99.90;;;14.46;100.00;100981.06;6283462;22;20596;-90
2021/07/20 00:05:29;;;;;;;19.02;11.38;;;13.20;99.90;;;14.48;100.00;100973.09;6283869;22;20004;-89
2021/07/20 00:08:01;;;;;;;18.52;10.88;;;13.20;99.90;;;14.51;100.00;100973.13;6284003;22;20011;-89
2021/07/20 00:10:56;;;;;;;17.40;10.68;;;13.20;99.90;;;14.50;100.00;100970.72;6282023;22;20046;-89
2021/07/20 00:13:22;;;;;;;17.02;10.98;;;13.20;99.90;;;14.48;100.00;100975.91;6283675;22;20030;-89
2021/07/20 00:15:52;;;;;;;18.05;11.80;;;13.20;99.90;;;14.43;100.00;100971.41;6281739;22;20008;-88
2021/07/20 00:18:25;;;;;;;18.15;11.15;;;13.20;99.90;;;14.39;100.00;100973.34;6282259;22;20015;-88
2021/07/20 00:20:52;;;;;;;17.27;11.10;;;13.20;99.90;;;14.40;100.00;100966.53;6281096;22;20087;-90
2021/07/20 00:23:21;;;;;;;18.42;11.05;;;13.10;99.90;;;14.36;100.00;100971.28;6281653;22;20014;-91
2021/07/20 00:25:50;;;;;;;21.65;12.00;;;13.10;99.90;;;14.37;100.00;100969.28;6281327;22;20003;-90
2021/07/20 00:28:19;;;;;;;16.50;10.93;;;13.10;99.90;;;14.35;100.00;100978.09;6282614;22;20006;-89
2021/07/20 00:30:47;;;;;;;19.70;11.68;;;13.10;99.90;;;14.29;100.00;100971.13;6281944;22;20004;-89
2021/07/20 00:33:13;;;;;;;19.60;11.52;;;13.00;99.90;;;14.26;100.00;100972.69;6279306;22;20030;-88
2021/07/20 00:35:40;;;;;;;22.02;11.75;;;13.10;99.90;;;14.24;100.00;100977.06;6279552;22;20038;-87
2021/07/20 00:38:06;;;;;;;18.88;12.23;;;13.10;99.90;;;14.21;100.00;100973.00;6279535;22;20009;-86
2021/07/20 00:40:33;;;;;;;17.40;10.20;;;13.00;99.90;;;14.19;100.00;100974.59;6294795;22;20038;-87
2021/07/20 00:43:01;;;;;;;18.13;10.70;;;12.90;99.90;;;14.16;100.00;100975.31;6293020;22;20014;-89
2021/07/20 00:45:28;;;;;;;16.73;10.60;;;12.90;99.90;;;14.11;100.00;100972.81;6280978;22;20035;-88
2021/07/20 00:47:54;;;;;;;17.70;10.30;;;12.80;99.90;;;14.02;100.00;100970.25;6281515;22;20033;-90
2021/07/20 00:50:31;;;;;;;17.15;10.85;;;12.80;99.90;;;13.99;100.00;100971.00;6283470;22;20496;-85
2021/07/20 00:52:57;;;;;;;16.85;10.15;;;12.80;99.90;;;13.93;100.00;100974.50;6281711;22;20012;-89
2021/07/20 00:55:24;;;;;;;18.00;10.90;;;12.70;99.90;;;13.89;100.00;100966.00;6281643;22;20015;-90
2021/07/20 00:57:53;;;;;;;19.38;11.80;;;12.60;99.90;;;13.85;100.00;100969.94;6281532;22;20019;-89
2021/07/20 01:00:23;;;;;;;17.38;11.45;;;12.60;99.90;;;13.79;100.00;100965.81;6281245;22;20057;-90
2021/07/20 01:02:52;;;;;;;20.60;11.57;;;12.60;99.90;;;13.75;100.00;100968.53;6281559;22;20015;-85
2021/07/20 01:05:25;;;;;;;17.40;10.70;;;12.50;99.90;;;13.71;100.00;100964.84;6280649;22;20007;-88
2021/07/20 01:07:52;;;;;;;21.85;12.50;;;12.50;99.90;;;13.68;100.00;100972.00;6279787;22;20014;-90
2021/07/20 01:10:23;;;;;;;18.50;10.85;;;12.50;99.90;;;13.66;100.00;100970.78;6280552;22;20012;-89
2021/07/20 01:12:50;;;;;;;18.52;11.45;;;12.40;99.90;;;13.62;100.00;100967.91;6279535;22;20003;-87
2021/07/20 01:15:23;;;;;;;21.05;11.32;;;12.40;99.90;;;13.58;100.00;100969.03;6281924;22;20004;-90
2021/07/20 01:17:56;;;;;;;18.50;10.68;;;12.40;99.90;;;13.52;100.00;100964.88;6279306;22;20287;-91
2021/07/20 01:20:28;;;;;;;20.25;10.77;;;12.30;99.90;;;13.45;100.00;100967.56;6280049;22;20456;-90
2021/07/20 01:23:21;;;;;;;16.48;10.60;;;12.30;99.90;;;13.39;100.00;100961.41;6282320;22;20053;-89
2021/07/20 01:25:50;;;;;;;14.98;9.85;;;12.20;99.90;;;13.35;100.00;100963.34;6282083;22;20477;-89
2021/07/20 01:28:23;;;;;;;19.05;11.25;;;12.20;99.90;;;13.33;100.00;100970.47;6284446;22;20306;-92
2021/07/20 01:31:06;;;;;;;19.58;10.68;;;12.10;99.90;;;13.33;100.00;100978.91;6285112;22;20011;-89
2021/07/20 01:33:41;;;;;;;15.38;10.50;;;12.10;99.90;;;13.26;100.00;100973.94;6279213;22;20008;-88
2021/07/20 01:36:10;;;;;;;18.95;10.98;;;12.10;99.90;;;13.21;100.00;100977.06;6281501;22;20033;-89
2021/07/20 01:38:38;;;;;;;17.17;10.95;;;12.00;99.90;;;13.16;100.00;100975.34;6279335;22;20003;-89
2021/07/20 01:41:13;;;;;;;15.85;10.25;;;12.00;99.90;;;13.10;100.00;100965.59;6280005;22;20012;-90
2021/07/20 01:43:47;;;;;;;20.88;10.55;;;11.90;99.90;;;13.10;100.00;100968.41;6279899;22;20011;-88
2021/07/20 01:46:18;;;;;;;17.65;11.00;;;11.90;99.90;;;13.10;100.00;100968.41;6282254;22;20290;-90
2021/07/20 01:48:48;;;;;;;17.25;10.07;;;11.90;99.90;;;13.10;100.00;100965.59;6281567;22;20023;-87
2021/07/20 01:51:15;;;;;;;20.02;11.13;;;11.90;99.90;;;13.09;100.00;100966.81;6281491;22;20034;-87
2021/07/20 01:53:42;;;;;;;18.50;10.20;;;11.90;99.90;;;13.05;100.00;100967.84;6279711;22;20003;-89
2021/07/20 01:56:11;;;;;;;19.02;11.20;;;11.90;99.90;;;12.97;100.00;100960.50;6281978;22;20007;-87
2021/07/20 01:58:42;;;;;;;21.55;11.43;;;11.80;99.90;;;13.00;100.00;100982.97;6279894;22;20031;-88
2021/07/20 02:01:20;;;;;;;22.13;12.38;;;11.80;99.90;;;13.02;100.00;100968.59;6279342;22;20015;-87
2021/07/20 02:09:16;;;;;;;21.42;11.30;;;11.80;99.90;;;13.03;100.00;100982.25;6280263;22;20018;-89
2021/07/20 02:11:46;;;;;;;19.33;10.85;;;11.80;99.90;;;13.02;100.00;100975.03;6279753;22;20322;-86
2021/07/20 02:14:15;;;;;;;21.20;11.80;;;11.80;99.90;;;13.01;100.00;100981.78;6279663;22;20413;-91
2021/07/20 02:16:48;;;;;;;20.23;10.52;;;11.80;99.90;;;13.02;100.00;100980.63;6279934;22;20074;-87
2021/07/20 02:19:44;;;;;;;18.75;11.65;;;11.80;99.90;;;13.08;100.00;100981.16;6280155;22;20058;-89
2021/07/20 02:22:14;;;;;;;17.02;9.98;;;11.80;99.90;;;13.12;100.00;100982.91;6280490;22;20016;-89
2021/07/20 02:24:40;;;;;;;16.80;9.93;;;11.90;99.90;;;13.17;100.00;100976.97;6281444;22;20445;-86
2021/07/20 02:27:10;;;;;;;15.70;10.32;;;11.90;99.90;;;13.24;100.00;100983.91;6279974;22;20008;-90
2021/07/20 02:29:39;;;;;;;17.58;10.90;;;12.00;99.90;;;13.32;100.00;100980.91;6281780;22;20004;-88
2021/07/20 02:32:09;;;;;;;20.65;11.73;;;12.00;99.90;;;13.41;100.00;100984.31;6280375;22;20004;-86
2021/07/20 02:34:38;;;;;;;20.02;10.88;;;12.20;99.90;;;13.49;100.00;100979.63;6282107;22;20317;-89
2021/07/20 02:37:06;;;;;;;20.38;11.40;;;12.20;99.90;;;13.56;100.00;100976.97;6282164;22;20008;-89
2021/07/20 02:39:35;;;;;;;20.30;11.32;;;12.30;99.90;;;13.59;100.00;100981.84;6282193;22;20011;-88
2021/07/20 02:42:04;;;;;;;18.88;11.55;;;12.40;99.90;;;13.62;100.00;100987.53;6296767;22;20022;-85
2021/07/20 02:44:31;;;;;;;17.23;11.10;;;12.40;99.90;;;13.63;100.00;100979.94;6283587;22;20676;-88
2021/07/20 02:47:02;;;;;;;16.65;10.57;;;12.40;99.90;;;13.66;100.00;100977.19;6280323;22;20012;-88
2021/07/20 02:49:31;;;;;;;19.73;11.80;;;12.40;99.90;;;13.66;100.00;100973.56;6281363;22;20027;-87
2021/07/20 02:51:58;;;;;;;18.45;10.90;;;12.40;99.90;;;13.64;100.00;100975.97;6278720;22;20016;-87
2021/07/20 02:54:27;;;;;;;21.08;11.45;;;12.40;99.90;;;13.63;100.00;100975.13;6279997;22;20069;-89
2021/07/20 02:56:55;;;;;;;18.02;10.80;;;12.40;99.90;;;13.63;100.00;100974.31;6277739;22;20015;-90
2021/07/20 02:59:27;;;;;;;22.80;11.80;;;12.40;99.90;;;13.59;100.00;100970.63;6284095;22;20492;-83
2021/07/20 03:02:03;;;;;;;18.55;12.00;;;12.30;99.90;;;13.56;100.00;100968.56;6299173;22;19999;-86
2021/07/20 03:04:29;;;;;;;21.90;12.38;;;12.30;99.90;;;13.51;100.00;100982.91;6289367;22;20008;-90
2021/07/20 03:07:02;;;;;;;17.35;10.82;;;12.20;99.90;;;13.46;100.00;100978.38;6278878;22;20429;-89
2021/07/20 03:09:31;;;;;;;16.42;10.13;;;12.20;99.90;;;13.44;100.00;100977.97;6278235;22;20007;-89
2021/07/20 03:12:07;;;;;;;20.02;10.68;;;12.20;99.90;;;13.35;100.00;100985.78;6279368;22;20016;-88
2021/07/20 03:14:35;;;;;;;17.42;10.52;;;12.10;99.90;;;13.26;100.00;100984.38;6279594;22;20007;-89
2021/07/20 03:17:04;;;;;;;19.00;11.02;;;12.00;99.90;;;13.15;100.00;100979.34;6278888;22;20011;-88
2021/07/20 03:19:34;;;;;;;20.58;10.98;;;12.00;99.90;;;13.07;100.00;100977.53;6277617;22;20011;-88
2021/07/20 03:22:08;;;;;;;17.52;11.30;;;11.90;99.90;;;13.07;100.00;100980.31;6279278;22;20121;-87
2021/07/20 03:24:38;;;;;;;21.08;11.15;;;11.90;99.90;;;13.02;100.00;100977.81;6279510;22;20012;-86
2021/07/20 03:27:11;;;;;;;17.48;10.88;;;11.80;99.90;;;13.02;100.00;100979.81;6287912;22;20025;-86
2021/07/20 03:29:43;;;;;;;20.08;11.75;;;11.80;99.90;;;13.01;100.00;100981.78;6287503;22;20091;-87
2021/07/20 03:32:20;;;;;;;17.17;11.10;;;11.80;99.90;;;13.04;100.00;100978.25;6276854;22;20035;-88
2021/07/20 03:34:48;;;;;;;19.27;12.40;;;11.80;99.90;;;13.06;100.00;100981.53;6276899;22;20015;-89
2021/07/20 03:37:16;;;;;;;18.83;11.98;;;11.80;99.90;;;13.07;100.00;100977.53;6279176;22;20053;-87
2021/07/20 03:39:44;;;;;;;18.60;11.10;;;11.80;99.90;;;13.06;100.00;100973.13;6280014;22;20004;-90
2021/07/20 03:42:10;;;;;;;21.83;11.63;;;11.90;99.90;;;13.11;100.00;100977.63;6278275;22;20008;-88
2021/07/20 03:44:38;;;;;;;20.98;11.77;;;11.80;99.90;;;13.17;100.00;100982.59;6281153;22;20000;-88
2021/07/20 03:47:06;;;;;;;20.15;11.98;;;11.90;99.90;;;13.19;100.00;100971.84;6279147;22;20007;-88
2021/07/20 03:49:34;;;;;;;18.15;11.40;;;11.90;99.90;;;13.23;100.00;100977.50;6282069;22;20000;-88
2021/07/20 03:52:04;;;;;;;20.92;11.18;;;12.00;99.90;;;13.26;100.00;100976.75;6280880;22;20007;-89
2021/07/20 03:54:34;;;;;;;21.55;11.75;;;12.00;99.90;;;13.29;100.00;100981.66;6283154;22;20090;-89
2021/07/20 03:57:03;;;;;;;19.00;11.02;;;12.10;99.90;;;13.31;100.00;100981.28;6286861;22;20010;-88
2021/07/20 03:59:33;;;;;;;17.48;11.38;;;12.00;99.90;;;13.30;100.00;100972.03;6288162;22;20007;-89
2021/07/20 04:02:04;;;;;;;21.25;11.63;;;12.10;99.90;;;13.32;100.00;100978.13;6285870;22;20405;-85
2021/07/20 04:04:40;;;;;;;28.90;11.77;;;12.10;99.90;;;13.37;100.00;100985.41;6283938;22;20018;-88
2021/07/20 04:07:13;;;;;;;17.85;9.98;;;12.10;99.90;;;13.35;100.00;100984.97;6284642;22;20060;-88
2021/07/20 04:09:41;;;;;;;21.35;11.88;;;12.10;99.90;;;13.32;100.00;100983.72;6282581;22;20034;-87
2021/07/20 04:12:10;;;;;;;21.30;10.60;;;12.10;99.90;;;13.32;100.00;100991.31;6282296;22;20357;-87
2021/07/20 04:14:37;;;;;;;19.38;11.40;;;12.00;99.90;;;13.30;100.00;100991.69;6281826;22;20054;-88
2021/07/20 04:17:05;;;;;;;25.20;13.57;;;12.10;99.90;;;13.30;100.00;100994.47;6280926;22;20004;-89
2021/07/20 04:19:31;;;;;;;21.85;12.15;;;12.10;99.90;;;13.32;100.00;100989.34;6282556;22;20092;-87
2021/07/20 04:21:58;;;;;;;22.60;12.23;;;12.10;99.90;;;13.38;100.00;100995.47;6280600;22;20004;-89
2021/07/20 04:24:28;;;;;;;20.23;10.80;;;12.10;99.90;;;13.43;100.00;100992.34;6280466;22;20023;-87
2021/07/20 04:26:55;;;;;;;20.02;12.32;;;12.20;99.90;;;13.47;100.00;100988.44;6281305;22;20011;-88
2021/07/20 04:29:26;;;;;;;25.00;11.20;;;12.20;99.90;;;13.56;100.00;100996.63;6282780;22;20004;-88
2021/07/20 04:32:01;;;;;;;18.67;11.07;;;12.20;99.90;;;13.60;100.00;100994.72;6280939;22;20311;-89
2021/07/20 04:34:27;;;;;;;19.83;10.88;;;12.30;99.90;;;13.66;100.00;100982.00;6282798;22;20007;-86
2021/07/20 04:36:54;;;;;;;20.75;12.27;;;12.40;99.90;;;13.70;100.00;100977.28;6280768;22;20105;-87
2021/07/20 04:39:20;;;;;;;24.00;12.30;;;12.50;99.90;;;13.81;100.00;100983.88;6283541;22;20069;-90
2021/07/20 04:41:48;;;;;;;20.23;11.38;;;12.50;99.90;;;13.91;100.00;100991.72;6283019;22;20008;-88
2021/07/20 04:44:16;;;;;;;25.90;13.82;;;12.60;99.90;;;14.04;100.00;100992.34;6283604;22;20004;-88
2021/07/20 10:48:17;;;;;;;10.65;7.95;;;25.30;60.70;;;26.87;36.89;101105.88;6268877;22;20024;-89
2021/07/20 10:51:12;;;;;;;13.10;8.20;;;24.70;63.60;;;26.63;38.25;101106.19;6280566;22;20041;-87
2021/07/20 10:54:28;;;;;;;13.18;8.52;;;24.30;66.50;;;25.74;39.29;101106.41;6254983;22;20008;-84
2021/07/20 10:56:59;;;;;;;12.80;8.32;;;23.70;67.20;;;25.57;40.00;101109.31;6287407;22;20008;-83
2021/07/20 11:00:07;;;;;;;14.70;8.35;;;23.50;69.00;;;26.21;38.10;101101.78;6270092;22;20012;-88
2021/07/20 11:03:11;;;;;;;11.40;7.68;;;23.80;67.00;;;26.70;38.07;101105.97;6254263;22;20016;-88
2021/07/20 11:05:47;;;;;;;12.60;8.70;;;24.20;67.60;;;27.20;35.35;101099.41;6253622;22;20028;-89
2021/07/20 11:08:16;;;;;;;12.38;8.55;;;24.60;62.80;;;27.02;36.24;101102.06;6253478;22;20012;-89
2021/07/20 11:10:59;;;;;;;11.95;8.65;;;24.80;63.00;;;27.69;34.70;101094.00;6254584;22;20011;-87
2021/07/20 11:13:37;;;;;;;10.90;8.32;;;25.20;60.80;;;27.87;35.28;101099.06;6253460;22;20011;-88
2021/07/20 11:16:08;;;;;;;10.43;7.95;;;25.60;62.20;;;28.47;34.54;101093.94;6252539;22;20349;-88
2021/07/20 11:18:41;;;;;;;10.18;7.50;;;25.90;60.30;;;28.46;33.88;101085.75;6253465;22;20012;-87
2021/07/20 11:21:15;;;;;;;11.85;7.63;;;26.10;59.50;;;28.69;34.13;101086.09;6252078;22;20012;-87
2021/07/20 11:23:46;;;;;;;11.45;7.38;;;26.20;59.70;;;29.04;31.53;101080.13;6253023;22;20353;-88
2021/07/20 11:26:20;;;;;;;10.75;8.35;;;26.50;56.30;;;28.85;32.35;101075.59;6253709;22;20395;-88
2021/07/20 11:28:49;;;;;;;11.82;7.03;;;26.60;56.40;;;29.33;30.85;101076.84;6254228;22;20492;-86
2021/07/20 11:31:29;;;;;;;9.30;6.78;;;26.60;54.50;;;28.48;31.93;101071.75;6255093;22;20011;-90
2021/07/20 11:34:28;;;;;;;13.02;7.28;;;26.10;56.80;;;27.52;36.85;101080.28;6253379;22;20038;-90
2021/07/20 11:37:05;;;;;;;9.57;7.07;;;25.40;62.30;;;26.42;35.98;101081.09;6253509;22;20012;-88
2021/07/20 11:39:43;;;;;;;11.88;8.02;;;24.50;60.40;;;25.81;38.67;101080.47;6280953;22;20023;-88
2021/07/20 11:42:59;;;;;;;10.73;7.10;;;23.90;64.20;;;26.12;37.37;101081.56;6253996;22;20065;-88
2021/07/20 11:45:47;;;;;;;10.30;6.63;;;24.00;64.20;;;27.23;37.39;101077.59;6253365;22;20345;-86
2021/07/20 11:48:18;;;;;;;9.18;6.15;;;24.70;64.20;;;27.96;37.00;101072.53;6251972;22;20014;-85
2021/07/20 11:51:17;;;;;;;11.68;6.95;;;25.30;64.10;;;28.39;34.22;101068.81;6253156;22;20007;-87
2021/07/20 11:54:10;;;;;;;10.23;7.22;;;26.00;59.80;;;28.63;34.04;101070.69;6253539;22;20007;-89
2021/07/20 11:56:58;;;;;;;9.68;6.20;;;26.10;58.90;;;28.78;32.50;101077.50;6253317;22;20018;-89
2021/07/20 12:00:06;;;;;;;9.95;6.80;;;26.20;56.90;;;29.01;32.44;101073.25;6255224;22;20034;-87
2021/07/20 12:03:08;;;;;;;12.85;7.03;;;26.40;57.10;;;28.71;33.24;101066.28;6255762;22;20389;-89
2021/07/20 12:06:27;;;;;;;11.85;6.20;;;26.20;57.50;;;28.58;33.63;101061.88;6255518;22;20008;-87
2021/07/20 12:09:11;;;;;;;10.93;6.50;;;26.40;58.50;;;28.02;33.66;101067.78;6256184;22;20004;-88
2021/07/20 12:11:44;;;;;;;9.65;5.95;;;26.40;56.50;;;28.33;33.44;101062.88;6254649;22;20007;-87
2021/07/20 12:14:11;;;;;;;12.05;6.47;;;26.40;56.90;;;28.56;33.16;101068.09;6254945;22;20360;-87
2021/07/20 12:16:47;;;;;;;9.23;6.43;;;26.50;56.60;;;28.52;33.08;101069.50;6255579;22;20004;-88
2021/07/20 12:19:35;;;;;;;10.43;6.03;;;26.50;56.10;;;28.64;32.79;101057.91;6254531;22;20010;-89
2021/07/20 12:22:09;;;;;;;9.23;6.22;;;26.50;55.50;;;28.89;33.37;101062.69;6254386;22;20015;-88
2021/07/20 12:24:36;;;;;;;8.93;6.03;;;26.50;57.60;;;29.06;31.44;101060.31;6254936;22;20019;-90
2021/07/20 12:27:06;;;;;;;8.45;5.70;;;26.60;54.30;;;28.95;32.59;101057.09;6254976;22;20010;-86
2021/07/20 12:29:42;;;;;;;8.98;6.28;;;26.70;56.00;;;28.86;32.33;101054.19;6254980;22;20011;-88
2021/07/20 12:32:15;;;;;;;8.57;6.68;;;26.80;55.10;;;28.73;33.19;101043.63;6256681;22;20011;-87
2021/07/20 12:34:43;;;;;;;9.90;5.90;;;26.80;56.40;;;28.92;32.99;101049.41;6255645;22;20008;-88
2021/07/20 12:37:09;;;;;;;8.15;5.93;;;26.90;57.10;;;29.22;31.54;101054.25;6255751;22;20085;-87
2021/07/20 12:39:41;;;;;;;9.93;5.38;;;27.00;53.70;;;29.38;32.33;101051.09;6255498;22;20413;-87
2021/07/20 12:42:07;;;;;;;8.27;5.28;;;26.90;56.10;;;28.66;32.75;101051.72;6257378;22;20429;-87
2021/07/20 12:44:39;;;;;;;8.35;5.18;;;26.50;55.50;;;28.10;33.85;101054.75;6256726;22;20000;-86
2021/07/20 12:47:09;;;;;;;8.57;5.32;;;25.90;56.80;;;27.55;35.10;101048.59;6256615;22;20336;-88
2021/07/20 12:49:43;;;;;;;10.40;5.35;;;25.50;58.50;;;27.66;34.73;101054.75;6256897;22;20003;-89
2021/07/20 12:52:09;;;;;;;7.45;5.03;;;25.50;58.90;;;27.98;35.52;101039.19;6255664;22;20089;-88
2021/07/20 12:54:41;;;;;;;9.27;5.20;;;25.60;60.00;;;28.46;33.36;101046.34;6256832;22;20395;-88
2021/07/20 12:57:13;;;;;;;6.68;4.72;;;26.00;57.40;;;28.88;32.92;101058.19;6256821;22;20441;-90
2021/07/20 12:59:44;;;;;;;9.25;5.25;;;26.40;57.50;;;28.75;31.22;101043.94;6257529;22;20050;-85
2021/07/20 13:02:15;;;;;;;7.60;5.22;;;26.60;54.00;;;29.39;32.14;101038.31;6253707;22;20014;-87
2021/07/20 13:04:51;;;;;;;8.80;5.40;;;26.80;56.10;;;29.24;31.79;101037.34;6280264;22;20020;-88
2021/07/20 13:07:18;;;;;;;8.85;4.82;;;26.80;55.30;;;28.46;34.18;101039.78;6257158;22;20007;-89
2021/07/20 13:09:45;;;;;;;9.35;4.45;;;26.40;56.90;;;27.39;34.73;101047.97;6256131;22;20004;-89
2021/07/20 13:12:19;;;;;;;7.10;4.70;;;25.60;56.80;;;26.50;36.70;101042.34;6261449;22;20012;-88
2021/07/20 13:14:48;;;;;;;7.15;5.00;;;24.80;59.40;;;25.85;37.77;101036.16;6270544;22;20027;-88
2021/07/20 13:17:36;;;;;;;6.63;4.88;;;24.10;60.40;;;26.10;38.43;101036.22;6256569;22;20011;-88
2021/07/20 13:20:09;;;;;;;9.50;4.57;;;24.10;63.00;;;26.83;37.38;101037.22;6253955;22;20008;-88
2021/07/20 13:22:41;;;;;;;6.68;4.95;;;24.50;63.20;;;27.56;35.52;101038.75;6253201;22;20012;-88
2021/07/20 13:25:12;;;;;;;10.45;5.15;;;25.00;59.90;;;27.74;33.41;101032.34;6253207;22;20007;-86
2021/07/20 13:27:57;;;;;;;7.90;4.55;;;25.20;57.50;;;27.97;35.16;101031.03;6253688;22;20083;-88
2021/07/20 13:30:30;;;;;;;8.25;4.95;;;25.40;60.20;;;28.37;34.73;101025.41;6254023;22;20004;-85
2021/07/20 13:32:58;;;;;;;8.48;4.88;;;25.80;60.10;;;28.84;34.80;101025.91;6254718;22;20010;-88
2021/07/20 13:35:28;;;;;;;9.82;5.35;;;26.20;59.50;;;28.97;32.80;101040.16;6257770;22;20003;-85
2021/07/20 13:37:57;;;;;;;6.00;4.20;;;26.60;56.60;;;29.23;31.68;101024.22;6257510;22;20004;-85
2021/07/20 13:40:26;;;;;;;8.32;4.43;;;26.80;55.30;;;28.61;33.23;101026.44;6285964;22;20315;-85
2021/07/20 13:42:53;;;;;;;6.22;4.10;;;26.50;56.00;;;27.50;34.91;101037.72;6257045;22;20004;-86
2021/07/20 13:45:20;;;;;;;6.60;4.10;;;25.90;57.00;;;26.71;36.66;101035.13;6256620;22;20027;-84
2021/07/20 13:47:52;;;;;;;7.20;3.90;;;25.00;59.00;;;26.25;37.40;101030.91;6256671;22;20016;-85
2021/07/20 13:50:28;;;;;;;6.20;4.53;;;24.50;60.60;;;25.91;38.33;101031.47;6255641;22;20014;-85
2021/07/20 13:52:58;;;;;;;11.50;4.38;;;24.10;62.20;;;25.75;37.41;101028.69;6254365;22;20008;-85
2021/07/20 13:55:30;;;;;;;5.35;3.80;;;24.00;60.90;;;26.32;37.37;101032.72;6256036;22;20016;-85
2021/07/20 13:58:04;;;;;;;8.90;4.30;;;24.30;61.40;;;26.81;35.26;101033.22;6256526;22;20010;-85
2021/07/20 14:00:38;;;;;;;7.30;3.83;;;24.60;58.90;;;27.30;34.88;101031.47;6254740;22;20007;-84
2021/07/20 14:03:05;;;;;;;7.00;3.88;;;24.90;58.70;;;27.57;34.33;101028.06;6256772;22;20392;-86
2021/07/20 14:05:37;;;;;;;6.78;4.50;;;25.10;58.10;;;27.64;33.32;101033.53;6284068;22;20382;-84
2021/07/20 14:08:06;;;;;;;7.15;3.67;;;25.30;56.20;;;27.98;34.25;101030.59;6257838;22;20004;-85
2021/07/20 14:10:34;;;;;;;5.82;4.00;;;25.60;58.50;;;28.09;34.72;101033.88;6257221;22;20054;-84
2021/07/20 14:13:01;;;;;;;7.63;4.07;;;25.80;58.30;;;27.59;35.18;101026.31;6281338;22;20437;-86
2021/07/20 14:15:32;;;;;;;5.68;4.28;;;25.70;58.10;;;27.86;35.47;101024.94;6255519;22;20008;-85
2021/07/20 14:18:01;;;;;;;8.20;4.47;;;25.90;58.60;;;27.47;34.45;101026.38;6256613;22;20046;-86
2021/07/20 14:20:36;;;;;;;8.73;4.90;;;25.70;56.80;;;26.74;36.46;101017.03;6258163;22;20008;-84
2021/07/20 14:23:04;;;;;;;8.48;4.47;;;25.20;58.90;;;26.36;37.66;101019.88;6258454;22;20012;-85
2021/07/20 14:25:50;;;;;;;8.40;4.55;;;24.80;60.30;;;26.22;37.33;101031.81;6256154;22;20007;-85
2021/07/20 14:28:25;;;;;;;7.63;5.18;;;24.60;59.60;;;26.18;37.21;101014.75;6282642;22;20074;-87
2021/07/20 14:30:56;;;;;;;7.95;4.45;;;24.60;60.60;;;26.44;37.67;101027.00;6282495;22;20004;-85
2021/07/20 14:33:27;;;;;;;7.90;5.00;;;24.70;60.40;;;26.39;36.71;101027.59;6283644;22;20318;-83
2021/07/20 14:35:53;;;;;;;8.70;4.93;;;24.60;59.50;;;26.64;36.80;101016.13;6283060;22;20003;-83
2021/07/20 14:38:42;;;;;;;8.10;4.72;;;24.70;60.10;;;26.64;37.29;101012.44;6283945;22;20263;-86
2021/07/20 14:41:14;;;;;;;7.18;4.28;;;24.70;60.60;;;26.82;36.90;101006.13;6256829;22;20007;-85
2021/07/20 14:43:45;;;;;;;7.63;4.63;;;24.80;60.70;;;26.75;35.80;101009.22;6256877;22;20004;-86
2021/07/20 14:46:16;;;;;;;6.03;4.28;;;24.80;58.90;;;26.86;36.67;101013.34;6255645;22;20004;-86
2021/07/20 14:48:48;;;;;;;7.78;4.32;;;24.80;60.30;;;26.55;37.61;101006.63;6256148;22;20011;-85
2021/07/20 14:51:16;;;;;;;6.65;4.80;;;24.70;60.60;;;26.39;37.83;101010.41;6256526;22;20010;-85
2021/07/20 14:53:54;;;;;;;12.65;4.78;;;24.60;61.40;;;26.38;37.83;101005.13;6254437;22;20333;-85
2021/07/20 14:56:22;;;;;;;6.78;4.30;;;24.50;61.50;;;26.35;37.77;101008.91;6255843;22;20008;-87
2021/07/20 14:59:01;;;;;;;8.57;4.82;;;24.50;61.30;;;25.96;37.63;101021.53;6255767;22;20007;-87
2021/07/20 15:01:34;;;;;;;6.82;4.63;;;24.30;60.40;;;25.57;37.40;101009.19;6284176;22;20014;-86
2021/07/20 15:04:06;;;;;;;6.95;4.38;;;24.00;60.20;;;25.74;38.69;101012.81;6257443;22;20011;-85
2021/07/20 15:06:41;;;;;;;7.57;4.35;;;23.90;63.10;;;25.86;38.59;101009.16;6253214;22;20345;-85
2021/07/20 15:09:20;;;;;;;;;;;23.80;62.60;;;25.76;38.88;101007.41;6252800;22;20000;-87
2021/07/20 15:11:55;;;;;;;6.68;4.22;;;23.70;63.70;;;25.88;37.60;101003.78;6250883;22;19903;-87
2021/07/20 15:14:35;;;;;;;7.07;4.28;;;23.80;62.20;;;26.07;38.12;101010.59;6277888;22;20004;-87
2021/07/20 15:17:10;;;;;;;7.93;4.18;;;24.00;62.50;;;26.09;38.38;101008.06;6252925;22;20015;-89
2021/07/20 15:19:44;;;;;;;6.05;3.55;;;24.00;62.60;;;26.29;37.66;101011.56;6253066;22;20429;-85
2021/07/20 15:22:20;;;;;;;6.97;4.35;;;24.20;62.10;;;26.19;38.02;101013.50;6280127;22;20003;-84
2021/07/20 15:24:51;;;;;;;8.38;5.00;;;24.20;62.10;;;26.17;37.48;101009.47;6251697;22;20426;-85
2021/07/20 15:27:22;;;;;;;6.53;4.43;;;24.20;61.30;;;26.19;38.45;101004.91;6279092;22;20054;-87
2021/07/20 15:29:57;;;;;;;8.40;4.43;;;24.20;63.20;;;26.35;37.47;100997.44;6265450;22;20003;-84
2021/07/20 15:32:30;;;;;;;8.48;4.22;;;24.30;61.90;;;26.53;36.69;101007.06;6290414;22;20059;-83
2021/07/20 15:34:59;;;;;;;8.85;4.85;;;24.40;60.80;;;26.04;37.96;101003.69;6281644;22;20087;-86
2021/07/20 15:37:30;;;;;;;7.55;4.55;;;24.30;61.90;;;26.03;38.03;100993.53;6279804;22;20007;-85
2021/07/20 15:40:08;;;;;;;8.35;4.70;;;24.10;62.50;;;25.97;39.18;101006.00;6254311;22;20019;-85
2021/07/20 15:42:40;;;;;;;8.15;4.60;;;24.10;63.80;;;26.11;38.09;100999.81;6253545;22;20031;-86
2021/07/20 15:45:17;;;;;;;7.28;4.50;;;24.10;62.60;;;25.66;39.04;101003.63;6253962;22;20008;-82
2021/07/20 15:48:07;;;;;;;7.43;4.45;;;23.90;62.80;;;25.75;38.77;100999.31;6253716;22;20015;-85
2021/07/20 15:50:35;;;;;;;7.22;4.55;;;23.90;62.90;;;25.62;39.18;100996.41;6280575;22;20011;-82
2021/07/20 15:53:07;;;;;;;7.50;4.78;;;23.80;63.70;;;25.43;39.35;101003.84;6278801;22;20004;-86
2021/07/20 15:55:36;;;;;;;10.95;4.70;;;23.50;64.20;;;25.24;39.60;101001.16;6278192;22;20126;-86
2021/07/20 15:58:03;;;;;;;9.40;5.00;;;23.40;64.10;;;25.23;39.73;100999.53;6278290;22;20418;-85
2021/07/20 16:00:33;;;;;;;6.78;4.43;;;23.20;65.20;;;25.15;39.76;100998.94;6277870;22;20035;-86
2021/07/20 16:03:02;;;;;;;7.03;4.60;;;23.20;65.10;;;25.08;40.83;100997.06;6277842;22;20058;-88
2021/07/20 16:05:28;;;;;;;7.30;4.78;;;23.10;67.10;;;25.21;38.69;100994.25;6251347;22;20409;-90
2021/07/20 16:07:54;;;;;;;8.55;4.25;;;23.20;63.90;;;25.19;39.62;100996.78;6250676;22;20076;-89
2021/07/20 16:10:25;;;;;;;7.55;5.10;;;23.30;64.70;;;25.12;38.84;100996.97;6278036;22;20031;-89
2021/07/20 16:13:03;;;;;;;9.98;4.70;;;23.30;63.40;;;25.13;39.40;100990.81;6279143;22;20018;-86
2021/07/20 16:15:45;;;;;;;6.75;4.07;;;23.20;64.30;;;25.00;39.86;100995.66;6252152;22;20007;-85
2021/07/20 16:18:22;;;;;;;8.85;4.05;;;23.10;65.40;;;24.94;39.50;100994.59;6251902;22;20004;-86
2021/07/20 16:21:02;;;;;;;8.45;4.82;;;23.00;64.40;;;24.68;40.38;100995.66;6251799;22;20432;-89
2021/07/20 16:23:35;;;;;;;7.05;4.25;;;22.90;65.20;;;24.70;41.26;100986.63;6251784;22;20014;-87
2021/07/20 16:26:10;;;;;;;7.10;4.28;;;22.90;66.80;;;24.56;42.02;100984.97;6251574;22;20000;-91
2021/07/20 16:28:45;;;;;;;10.07;4.68;;;22.80;68.00;;;24.45;41.67;100988.06;6251779;22;20031;-87
2021/07/20 16:31:13;;;;;;;8.23;4.65;;;22.70;67.60;;;24.31;41.86;100991.25;6251524;22;20012;-86
2021/07/20 16:33:48;;;;;;;9.98;4.70;;;22.60;67.80;;;24.20;42.35;100989.91;6252237;22;20012;-87